sensor_id;sensor_type;location;lat;lon;timestamp;temperature;humidity
67572;SHT31;54397;47.506;19.158;2023-10-19T00:01:37;9.64;71.22
67572;SHT31;54397;47.506;19.158;2023-10-19T00:04:59;9.64;70.83
67572;SHT31;54397;47.506;19.158;2023-10-19T00:08:21;9.71;71.54
67572;SHT31;54397;47.506;19.158;2023-10-19T00:11:45;9.69;70.82
67572;SHT31;54397;47.506;19.158;2023-10-19T00:15:11;9.74;70.27
67572;SHT31;54397;47.506;19.158;2023-10-19T00:18:33;9.51;71.85
67572;SHT31;54397;47.506;19.158;2023-10-19T00:21:56;9.64;72.06
67572;SHT31;54397;47.506;19.158;2023-10-19T00:25:23;9.73;71.87
67572;SHT31;54397;47.506;19.158;2023-10-19T00:28:46;9.85;71.10
67572;SHT31;54397;47.506;19.158;2023-10-19T00:32:11;9.97;70.24
67572;SHT31;54397;47.506;19.158;2023-10-19T00:35:36;10.06;69.75
67572;SHT31;54397;47.506;19.158;2023-10-19T00:39:04;10.06;69.61
67572;SHT31;54397;47.506;19.158;2023-10-19T00:42:35;9.97;71.05
67572;SHT31;54397;47.506;19.158;2023-10-19T00:46:01;9.97;71.22
67572;SHT31;54397;47.506;19.158;2023-10-19T00:49:36;9.77;71.03
67572;SHT31;54397;47.506;19.158;2023-10-19T00:52:59;9.81;70.77
67572;SHT31;54397;47.506;19.158;2023-10-19T00:56:27;9.87;69.25
67572;SHT31;54397;47.506;19.158;2023-10-19T00:59:53;9.78;69.06
67572;SHT31;54397;47.506;19.158;2023-10-19T01:03:16;9.91;69.88
67572;SHT31;54397;47.506;19.158;2023-10-19T01:06:38;9.94;68.89
67572;SHT31;54397;47.506;19.158;2023-10-19T01:10:02;9.81;69.86
67572;SHT31;54397;47.506;19.158;2023-10-19T01:13:31;9.88;69.55
67572;SHT31;54397;47.506;19.158;2023-10-19T01:16:58;9.83;69.15
67572;SHT31;54397;47.506;19.158;2023-10-19T01:23:55;9.70;69.53
67572;SHT31;54397;47.506;19.158;2023-10-19T01:27:19;9.53;71.70
67572;SHT31;54397;47.506;19.158;2023-10-19T01:30:41;9.51;71.72
67572;SHT31;54397;47.506;19.158;2023-10-19T01:34:06;9.56;71.02
67572;SHT31;54397;47.506;19.158;2023-10-19T01:37:28;9.47;72.41
67572;SHT31;54397;47.506;19.158;2023-10-19T01:40:50;9.50;73.07
67572;SHT31;54397;47.506;19.158;2023-10-19T01:44:12;9.70;73.17
67572;SHT31;54397;47.506;19.158;2023-10-19T01:47:39;9.78;73.38
67572;SHT31;54397;47.506;19.158;2023-10-19T01:51:03;9.85;73.50
67572;SHT31;54397;47.506;19.158;2023-10-19T01:54:31;9.90;72.34
67572;SHT31;54397;47.506;19.158;2023-10-19T01:57:53;9.93;73.90
67572;SHT31;54397;47.506;19.158;2023-10-19T02:01:16;9.66;72.57
67572;SHT31;54397;47.506;19.158;2023-10-19T02:04:40;9.73;73.61
67572;SHT31;54397;47.506;19.158;2023-10-19T02:08:08;9.78;74.94
67572;SHT31;54397;47.506;19.158;2023-10-19T02:11:32;9.77;75.70
67572;SHT31;54397;47.506;19.158;2023-10-19T02:14:53;9.48;76.99
67572;SHT31;54397;47.506;19.158;2023-10-19T02:18:15;9.48;77.66
67572;SHT31;54397;47.506;19.158;2023-10-19T02:21:39;9.58;77.78
67572;SHT31;54397;47.506;19.158;2023-10-19T02:25:01;9.43;78.92
67572;SHT31;54397;47.506;19.158;2023-10-19T02:28:29;9.33;79.15
67572;SHT31;54397;47.506;19.158;2023-10-19T02:31:53;9.39;80.44
67572;SHT31;54397;47.506;19.158;2023-10-19T02:35:19;9.48;80.39
67572;SHT31;54397;47.506;19.158;2023-10-19T02:38:47;9.53;80.89
67572;SHT31;54397;47.506;19.158;2023-10-19T02:42:13;9.53;80.33
67572;SHT31;54397;47.506;19.158;2023-10-19T02:45:34;9.32;80.00
67572;SHT31;54397;47.506;19.158;2023-10-19T02:48:56;9.46;80.74
67572;SHT31;54397;47.506;19.158;2023-10-19T02:52:23;9.47;81.14
67572;SHT31;54397;47.506;19.158;2023-10-19T02:55:45;9.50;81.79
67572;SHT31;54397;47.506;19.158;2023-10-19T02:59:06;9.56;81.75
67572;SHT31;54397;47.506;19.158;2023-10-19T03:02:30;9.57;82.66
67572;SHT31;54397;47.506;19.158;2023-10-19T03:05:54;9.58;82.89
67572;SHT31;54397;47.506;19.158;2023-10-19T03:09:16;9.37;83.08
67572;SHT31;54397;47.506;19.158;2023-10-19T03:12:45;9.20;83.92
67572;SHT31;54397;47.506;19.158;2023-10-19T03:16:11;9.09;83.99
67572;SHT31;54397;47.506;19.158;2023-10-19T03:19:32;9.04;84.74
67572;SHT31;54397;47.506;19.158;2023-10-19T03:22:56;9.19;84.37
67572;SHT31;54397;47.506;19.158;2023-10-19T03:26:22;9.27;83.81
67572;SHT31;54397;47.506;19.158;2023-10-19T03:29:58;9.23;83.31
67572;SHT31;54397;47.506;19.158;2023-10-19T03:33:24;9.35;83.71
67572;SHT31;54397;47.506;19.158;2023-10-19T03:36:50;9.40;83.29
67572;SHT31;54397;47.506;19.158;2023-10-19T03:40:16;9.18;83.96
67572;SHT31;54397;47.506;19.158;2023-10-19T03:43:48;9.23;83.56
67572;SHT31;54397;47.506;19.158;2023-10-19T03:47:10;8.99;84.56
67572;SHT31;54397;47.506;19.158;2023-10-19T03:50:40;9.14;84.75
67572;SHT31;54397;47.506;19.158;2023-10-19T03:54:01;9.27;84.43
67572;SHT31;54397;47.506;19.158;2023-10-19T03:57:29;9.19;83.84
67572;SHT31;54397;47.506;19.158;2023-10-19T04:00:58;8.99;84.53
67572;SHT31;54397;47.506;19.158;2023-10-19T04:04:26;9.08;84.88
67572;SHT31;54397;47.506;19.158;2023-10-19T04:07:51;9.19;83.97
67572;SHT31;54397;47.506;19.158;2023-10-19T04:11:39;8.89;85.10
67572;SHT31;54397;47.506;19.158;2023-10-19T04:15:10;8.91;85.33
67572;SHT31;54397;47.506;19.158;2023-10-19T04:18:40;9.05;84.66
67572;SHT31;54397;47.506;19.158;2023-10-19T04:22:07;9.02;84.24
67572;SHT31;54397;47.506;19.158;2023-10-19T04:25:32;9.11;84.57
67572;SHT31;54397;47.506;19.158;2023-10-19T04:28:54;9.14;84.94
67572;SHT31;54397;47.506;19.158;2023-10-19T04:32:16;9.22;84.32
67572;SHT31;54397;47.506;19.158;2023-10-19T04:35:47;9.15;84.76
67572;SHT31;54397;47.506;19.158;2023-10-19T04:39:15;9.14;84.32
67572;SHT31;54397;47.506;19.158;2023-10-19T04:42:41;8.97;84.58
67572;SHT31;54397;47.506;19.158;2023-10-19T04:46:10;8.89;85.56
67572;SHT31;54397;47.506;19.158;2023-10-19T04:49:35;8.91;85.21
67572;SHT31;54397;47.506;19.158;2023-10-19T04:52:56;8.85;84.89
67572;SHT31;54397;47.506;19.158;2023-10-19T04:56:18;8.99;85.08
67572;SHT31;54397;47.506;19.158;2023-10-19T04:59:42;9.02;84.18
67572;SHT31;54397;47.506;19.158;2023-10-19T05:03:06;9.02;84.22
67572;SHT31;54397;47.506;19.158;2023-10-19T05:06:28;8.99;83.53
67572;SHT31;54397;47.506;19.158;2023-10-19T05:09:52;8.92;84.12
67572;SHT31;54397;47.506;19.158;2023-10-19T05:13:15;8.91;83.96
67572;SHT31;54397;47.506;19.158;2023-10-19T05:16:37;8.65;85.11
67572;SHT31;54397;47.506;19.158;2023-10-19T05:19:59;8.75;85.38
67572;SHT31;54397;47.506;19.158;2023-10-19T05:23:24;8.88;85.65
67572;SHT31;54397;47.506;19.158;2023-10-19T05:26:46;8.84;85.65
67572;SHT31;54397;47.506;19.158;2023-10-19T05:30:08;8.97;84.57
67572;SHT31;54397;47.506;19.158;2023-10-19T05:33:32;9.06;84.02
67572;SHT31;54397;47.506;19.158;2023-10-19T05:36:54;9.09;84.33
67572;SHT31;54397;47.506;19.158;2023-10-19T05:40:20;9.02;83.48
67572;SHT31;54397;47.506;19.158;2023-10-19T05:43:45;9.08;83.25
67572;SHT31;54397;47.506;19.158;2023-10-19T05:47:10;9.12;84.36
67572;SHT31;54397;47.506;19.158;2023-10-19T05:50:35;9.18;84.78
67572;SHT31;54397;47.506;19.158;2023-10-19T05:53:57;9.12;84.48
67572;SHT31;54397;47.506;19.158;2023-10-19T05:57:23;8.82;85.38
67572;SHT31;54397;47.506;19.158;2023-10-19T06:00:45;9.09;85.51
67572;SHT31;54397;47.506;19.158;2023-10-19T06:04:10;9.18;86.18
67572;SHT31;54397;47.506;19.158;2023-10-19T06:07:32;9.29;85.12
67572;SHT31;54397;47.506;19.158;2023-10-19T06:10:54;9.12;85.00
67572;SHT31;54397;47.506;19.158;2023-10-19T06:14:16;8.99;85.17
67572;SHT31;54397;47.506;19.158;2023-10-19T06:17:39;8.95;85.48
67572;SHT31;54397;47.506;19.158;2023-10-19T06:21:01;9.09;86.14
67572;SHT31;54397;47.506;19.158;2023-10-19T06:24:25;9.11;85.85
67572;SHT31;54397;47.506;19.158;2023-10-19T06:27:48;9.25;85.82
67572;SHT31;54397;47.506;19.158;2023-10-19T06:31:12;9.23;85.56
67572;SHT31;54397;47.506;19.158;2023-10-19T06:34:39;9.02;85.87
67572;SHT31;54397;47.506;19.158;2023-10-19T06:38:01;9.19;86.36
67572;SHT31;54397;47.506;19.158;2023-10-19T06:41:25;9.26;85.19
67572;SHT31;54397;47.506;19.158;2023-10-19T06:44:47;9.40;85.24
67572;SHT31;54397;47.506;19.158;2023-10-19T06:48:13;9.42;85.33
67572;SHT31;54397;47.506;19.158;2023-10-19T06:51:37;9.43;85.64
67572;SHT31;54397;47.506;19.158;2023-10-19T06:55:03;9.20;86.04
67572;SHT31;54397;47.506;19.158;2023-10-19T06:58:25;9.09;86.62
67572;SHT31;54397;47.506;19.158;2023-10-19T07:01:48;9.23;86.93
67572;SHT31;54397;47.506;19.158;2023-10-19T07:05:15;9.40;86.78
67572;SHT31;54397;47.506;19.158;2023-10-19T07:08:42;9.48;86.28
67572;SHT31;54397;47.506;19.158;2023-10-19T07:12:07;9.63;86.31
67572;SHT31;54397;47.506;19.158;2023-10-19T07:15:29;9.73;85.95
67572;SHT31;54397;47.506;19.158;2023-10-19T07:18:52;9.78;85.84
67572;SHT31;54397;47.506;19.158;2023-10-19T07:22:14;9.84;85.75
67572;SHT31;54397;47.506;19.158;2023-10-19T07:25:38;9.85;85.77
67572;SHT31;54397;47.506;19.158;2023-10-19T07:29:05;9.85;85.67
67572;SHT31;54397;47.506;19.158;2023-10-19T07:32:31;9.84;85.07
67572;SHT31;54397;47.506;19.158;2023-10-19T07:35:54;9.93;85.14
67572;SHT31;54397;47.506;19.158;2023-10-19T07:39:16;9.84;85.20
67572;SHT31;54397;47.506;19.158;2023-10-19T07:42:40;9.94;84.99
67572;SHT31;54397;47.506;19.158;2023-10-19T07:46:09;9.84;85.03
67572;SHT31;54397;47.506;19.158;2023-10-19T07:49:31;9.83;85.17
67572;SHT31;54397;47.506;19.158;2023-10-19T07:52:53;9.94;85.49
67572;SHT31;54397;47.506;19.158;2023-10-19T07:56:17;10.04;84.57
67572;SHT31;54397;47.506;19.158;2023-10-19T07:59:40;9.98;85.26
67572;SHT31;54397;47.506;19.158;2023-10-19T08:03:03;9.98;84.74
67572;SHT31;54397;47.506;19.158;2023-10-19T08:06:26;9.99;84.82
67572;SHT31;54397;47.506;19.158;2023-10-19T08:09:52;10.08;84.51
67572;SHT31;54397;47.506;19.158;2023-10-19T08:13:14;9.90;85.07
67572;SHT31;54397;47.506;19.158;2023-10-19T08:16:36;10.04;85.03
67572;SHT31;54397;47.506;19.158;2023-10-19T08:19:58;10.12;85.34
67572;SHT31;54397;47.506;19.158;2023-10-19T08:23:19;10.08;85.31
67572;SHT31;54397;47.506;19.158;2023-10-19T08:26:45;10.05;85.25
67572;SHT31;54397;47.506;19.158;2023-10-19T08:30:11;10.16;85.06
67572;SHT31;54397;47.506;19.158;2023-10-19T08:33:34;10.14;85.62
67572;SHT31;54397;47.506;19.158;2023-10-19T08:37:02;10.25;85.40
67572;SHT31;54397;47.506;19.158;2023-10-19T08:40:26;10.42;84.04
67572;SHT31;54397;47.506;19.158;2023-10-19T08:43:50;10.56;84.44
67572;SHT31;54397;47.506;19.158;2023-10-19T08:47:12;10.67;84.28
67572;SHT31;54397;47.506;19.158;2023-10-19T08:50:34;10.70;84.21
67572;SHT31;54397;47.506;19.158;2023-10-19T08:54:01;10.81;84.43
67572;SHT31;54397;47.506;19.158;2023-10-19T08:57:26;10.76;83.85
67572;SHT31;54397;47.506;19.158;2023-10-19T09:00:51;10.70;84.52
67572;SHT31;54397;47.506;19.158;2023-10-19T09:04:19;10.88;84.41
67572;SHT31;54397;47.506;19.158;2023-10-19T09:07:41;10.79;83.80
67572;SHT31;54397;47.506;19.158;2023-10-19T09:11:10;10.93;84.78
67572;SHT31;54397;47.506;19.158;2023-10-19T09:14:37;11.14;84.20
67572;SHT31;54397;47.506;19.158;2023-10-19T09:21:37;11.36;84.00
67572;SHT31;54397;47.506;19.158;2023-10-19T09:25:01;11.42;83.34
67572;SHT31;54397;47.506;19.158;2023-10-19T09:28:28;11.38;83.79
67572;SHT31;54397;47.506;19.158;2023-10-19T09:31:52;11.66;83.22
67572;SHT31;54397;47.506;19.158;2023-10-19T09:35:21;11.75;80.87
67572;SHT31;54397;47.506;19.158;2023-10-19T09:38:48;11.87;80.13
67572;SHT31;54397;47.506;19.158;2023-10-19T09:42:13;11.91;80.93
67572;SHT31;54397;47.506;19.158;2023-10-19T09:45:41;11.90;80.03
67572;SHT31;54397;47.506;19.158;2023-10-19T09:49:04;12.01;80.54
67572;SHT31;54397;47.506;19.158;2023-10-19T09:52:32;12.16;80.78
67572;SHT31;54397;47.506;19.158;2023-10-19T09:55:58;12.16;80.00
67572;SHT31;54397;47.506;19.158;2023-10-19T09:59:38;12.27;80.12
67572;SHT31;54397;47.506;19.158;2023-10-19T10:03:01;12.40;80.28
67572;SHT31;54397;47.506;19.158;2023-10-19T10:06:29;12.68;79.58
67572;SHT31;54397;47.506;19.158;2023-10-19T10:09:51;12.56;79.31
67572;SHT31;54397;47.506;19.158;2023-10-19T10:17:01;12.68;80.46
67572;SHT31;54397;47.506;19.158;2023-10-19T10:20:36;12.75;80.35
67572;SHT31;54397;47.506;19.158;2023-10-19T10:23:59;13.47;91.16
67572;SHT31;54397;47.506;19.158;2023-10-19T10:27:21;14.38;86.69
67572;SHT31;54397;47.506;19.158;2023-10-19T10:31:12;15.05;79.71
67572;SHT31;54397;47.506;19.158;2023-10-19T10:34:43;15.39;79.47
67572;SHT31;54397;47.506;19.158;2023-10-19T10:38:10;15.25;74.63
67572;SHT31;54397;47.506;19.158;2023-10-19T10:41:38;14.77;74.62
67572;SHT31;54397;47.506;19.158;2023-10-19T10:45:04;14.40;75.26
67572;SHT31;54397;47.506;19.158;2023-10-19T10:48:27;14.34;75.84
67572;SHT31;54397;47.506;19.158;2023-10-19T10:51:49;14.22;77.04
67572;SHT31;54397;47.506;19.158;2023-10-19T10:55:15;14.05;76.66
67572;SHT31;54397;47.506;19.158;2023-10-19T10:58:37;13.93;77.12
67572;SHT31;54397;47.506;19.158;2023-10-19T11:01:59;13.82;78.49
67572;SHT31;54397;47.506;19.158;2023-10-19T11:05:21;13.62;79.87
67572;SHT31;54397;47.506;19.158;2023-10-19T11:08:45;13.68;80.08
67572;SHT31;54397;47.506;19.158;2023-10-19T11:12:15;13.90;79.37
67572;SHT31;54397;47.506;19.158;2023-10-19T11:15:39;14.58;76.70
67572;SHT31;54397;47.506;19.158;2023-10-19T11:19:03;15.57;74.68
67572;SHT31;54397;47.506;19.158;2023-10-19T11:22:28;16.42;71.09
67572;SHT31;54397;47.506;19.158;2023-10-19T11:25:57;16.40;70.02
67572;SHT31;54397;47.506;19.158;2023-10-19T11:29:23;16.32;70.46
67572;SHT31;54397;47.506;19.158;2023-10-19T11:32:46;16.46;71.86
67572;SHT31;54397;47.506;19.158;2023-10-19T11:36:08;16.39;72.30
67572;SHT31;54397;47.506;19.158;2023-10-19T11:39:29;16.45;71.08
67572;SHT31;54397;47.506;19.158;2023-10-19T11:42:53;16.25;71.78
67572;SHT31;54397;47.506;19.158;2023-10-19T11:46:18;16.18;71.66
67572;SHT31;54397;47.506;19.158;2023-10-19T11:49:40;16.33;72.03
67572;SHT31;54397;47.506;19.158;2023-10-19T11:53:02;16.29;77.80
67572;SHT31;54397;47.506;19.158;2023-10-19T11:56:27;16.56;77.66
67572;SHT31;54397;47.506;19.158;2023-10-19T11:59:53;16.90;75.67
67572;SHT31;54397;47.506;19.158;2023-10-19T12:03:17;17.29;73.62
67572;SHT31;54397;47.506;19.158;2023-10-19T12:06:40;17.31;70.16
67572;SHT31;54397;47.506;19.158;2023-10-19T12:10:07;17.75;67.50
67572;SHT31;54397;47.506;19.158;2023-10-19T12:13:30;17.75;66.89
67572;SHT31;54397;47.506;19.158;2023-10-19T12:16:52;17.63;68.03
67572;SHT31;54397;47.506;19.158;2023-10-19T12:20:17;18.11;66.29
67572;SHT31;54397;47.506;19.158;2023-10-19T12:23:45;18.75;65.94
67572;SHT31;54397;47.506;19.158;2023-10-19T12:27:13;18.79;64.73
67572;SHT31;54397;47.506;19.158;2023-10-19T12:30:37;18.45;65.93
67572;SHT31;54397;47.506;19.158;2023-10-19T12:34:00;18.41;66.52
67572;SHT31;54397;47.506;19.158;2023-10-19T12:37:25;17.62;67.65
67572;SHT31;54397;47.506;19.158;2023-10-19T12:40:48;16.74;70.67
67572;SHT31;54397;47.506;19.158;2023-10-19T12:44:14;16.48;71.82
67572;SHT31;54397;47.506;19.158;2023-10-19T12:47:39;16.19;72.79
67572;SHT31;54397;47.506;19.158;2023-10-19T12:51:01;16.00;73.78
67572;SHT31;54397;47.506;19.158;2023-10-19T12:54:23;16.04;74.17
67572;SHT31;54397;47.506;19.158;2023-10-19T12:57:47;16.04;74.66
67572;SHT31;54397;47.506;19.158;2023-10-19T13:01:12;15.97;75.15
67572;SHT31;54397;47.506;19.158;2023-10-19T13:04:38;16.06;75.13
67572;SHT31;54397;47.506;19.158;2023-10-19T13:08:10;16.05;75.46
67572;SHT31;54397;47.506;19.158;2023-10-19T13:11:37;16.11;75.72
67572;SHT31;54397;47.506;19.158;2023-10-19T13:15:05;16.25;75.11
67572;SHT31;54397;47.506;19.158;2023-10-19T13:18:35;16.26;76.96
67572;SHT31;54397;47.506;19.158;2023-10-19T13:21:57;16.70;79.57
67572;SHT31;54397;47.506;19.158;2023-10-19T13:25:26;17.14;73.54
67572;SHT31;54397;47.506;19.158;2023-10-19T13:29:03;17.63;76.61
67572;SHT31;54397;47.506;19.158;2023-10-19T13:32:28;17.87;74.99
67572;SHT31;54397;47.506;19.158;2023-10-19T13:35:50;17.80;74.52
67572;SHT31;54397;47.506;19.158;2023-10-19T13:39:12;17.90;73.05
67572;SHT31;54397;47.506;19.158;2023-10-19T13:42:42;17.66;70.60
67572;SHT31;54397;47.506;19.158;2023-10-19T13:46:08;17.28;71.88
67572;SHT31;54397;47.506;19.158;2023-10-19T13:49:32;17.03;72.38
67572;SHT31;54397;47.506;19.158;2023-10-19T13:52:58;16.76;73.47
67572;SHT31;54397;47.506;19.158;2023-10-19T13:56:21;16.53;74.23
67572;SHT31;54397;47.506;19.158;2023-10-19T13:59:46;15.98;73.73
67572;SHT31;54397;47.506;19.158;2023-10-19T14:03:09;15.30;75.04
67572;SHT31;54397;47.506;19.158;2023-10-19T14:06:36;15.22;75.30
67572;SHT31;54397;47.506;19.158;2023-10-19T14:10:01;15.09;76.33
67572;SHT31;54397;47.506;19.158;2023-10-19T14:13:25;14.68;76.56
67572;SHT31;54397;47.506;19.158;2023-10-19T14:16:50;14.58;77.37
67572;SHT31;54397;47.506;19.158;2023-10-19T14:20:14;14.43;77.37
67572;SHT31;54397;47.506;19.158;2023-10-19T14:23:36;14.37;77.70
67572;SHT31;54397;47.506;19.158;2023-10-19T14:27:03;14.20;78.44
67572;SHT31;54397;47.506;19.158;2023-10-19T14:30:28;14.02;79.27
67572;SHT31;54397;47.506;19.158;2023-10-19T14:33:50;14.16;82.62
67572;SHT31;54397;47.506;19.158;2023-10-19T14:37:12;14.78;83.81
67572;SHT31;54397;47.506;19.158;2023-10-19T14:40:33;15.32;80.12
67572;SHT31;54397;47.506;19.158;2023-10-19T14:43:57;15.67;78.43
67572;SHT31;54397;47.506;19.158;2023-10-19T14:47:23;15.73;75.59
67572;SHT31;54397;47.506;19.158;2023-10-19T14:50:47;15.71;77.53
67572;SHT31;54397;47.506;19.158;2023-10-19T14:54:11;15.94;78.49
67572;SHT31;54397;47.506;19.158;2023-10-19T14:57:33;15.64;73.79
67572;SHT31;54397;47.506;19.158;2023-10-19T15:00:55;15.26;75.05
67572;SHT31;54397;47.506;19.158;2023-10-19T15:04:20;14.99;75.96
67572;SHT31;54397;47.506;19.158;2023-10-19T15:07:49;14.84;76.67
67572;SHT31;54397;47.506;19.158;2023-10-19T15:11:20;14.58;77.46
67572;SHT31;54397;47.506;19.158;2023-10-19T15:14:43;14.60;77.91
67572;SHT31;54397;47.506;19.158;2023-10-19T15:18:07;14.47;78.84
67572;SHT31;54397;47.506;19.158;2023-10-19T15:21:29;14.44;79.23
67572;SHT31;54397;47.506;19.158;2023-10-19T15:24:53;14.36;80.25
67572;SHT31;54397;47.506;19.158;2023-10-19T15:28:15;14.26;80.87
67572;SHT31;54397;47.506;19.158;2023-10-19T15:31:39;14.20;81.23
67572;SHT31;54397;47.506;19.158;2023-10-19T15:35:02;14.22;81.00
67572;SHT31;54397;47.506;19.158;2023-10-19T15:38:24;14.14;81.07
67572;SHT31;54397;47.506;19.158;2023-10-19T15:41:45;14.06;81.50
67572;SHT31;54397;47.506;19.158;2023-10-19T15:45:16;14.08;81.20
67572;SHT31;54397;47.506;19.158;2023-10-19T15:48:45;14.06;84.63
67572;SHT31;54397;47.506;19.158;2023-10-19T15:52:08;14.12;84.42
67572;SHT31;54397;47.506;19.158;2023-10-19T15:55:29;14.57;85.41
67572;SHT31;54397;47.506;19.158;2023-10-19T15:58:54;15.03;83.49
67572;SHT31;54397;47.506;19.158;2023-10-19T16:02:18;15.32;82.24
67572;SHT31;54397;47.506;19.158;2023-10-19T16:05:40;15.49;82.01
67572;SHT31;54397;47.506;19.158;2023-10-19T16:09:03;15.19;78.21
67572;SHT31;54397;47.506;19.158;2023-10-19T16:12:28;15.40;77.85
67572;SHT31;54397;47.506;19.158;2023-10-19T16:15:53;15.18;77.89
67572;SHT31;54397;47.506;19.158;2023-10-19T16:19:14;14.92;78.56
67572;SHT31;54397;47.506;19.158;2023-10-19T16:22:36;14.65;79.54
67572;SHT31;54397;47.506;19.158;2023-10-19T16:26:01;14.36;80.13
67572;SHT31;54397;47.506;19.158;2023-10-19T16:29:27;14.10;81.06
67572;SHT31;54397;47.506;19.158;2023-10-19T16:32:49;14.06;81.44
67572;SHT31;54397;47.506;19.158;2023-10-19T16:36:13;13.74;82.06
67572;SHT31;54397;47.506;19.158;2023-10-19T16:39:37;13.74;82.81
67572;SHT31;54397;47.506;19.158;2023-10-19T16:43:00;13.53;83.29
67572;SHT31;54397;47.506;19.158;2023-10-19T16:46:23;13.58;83.55
67572;SHT31;54397;47.506;19.158;2023-10-19T16:49:44;13.53;83.54
67572;SHT31;54397;47.506;19.158;2023-10-19T16:53:06;13.55;83.66
67572;SHT31;54397;47.506;19.158;2023-10-19T16:56:30;13.61;83.46
67572;SHT31;54397;47.506;19.158;2023-10-19T16:59:57;13.65;82.91
67572;SHT31;54397;47.506;19.158;2023-10-19T17:03:18;13.66;82.93
67572;SHT31;54397;47.506;19.158;2023-10-19T17:06:40;13.54;82.88
67572;SHT31;54397;47.506;19.158;2023-10-19T17:10:04;13.50;83.51
67572;SHT31;54397;47.506;19.158;2023-10-19T17:13:30;13.47;83.61
67572;SHT31;54397;47.506;19.158;2023-10-19T17:16:52;13.48;83.71
67572;SHT31;54397;47.506;19.158;2023-10-19T17:20:17;13.64;87.00
67572;SHT31;54397;47.506;19.158;2023-10-19T17:23:41;13.96;87.16
67572;SHT31;54397;47.506;19.158;2023-10-19T17:27:03;13.90;81.94
67572;SHT31;54397;47.506;19.158;2023-10-19T17:30:28;13.78;81.68
67572;SHT31;54397;47.506;19.158;2023-10-19T17:33:55;13.71;82.45
67572;SHT31;54397;47.506;19.158;2023-10-19T17:37:17;13.62;82.96
67572;SHT31;54397;47.506;19.158;2023-10-19T17:40:39;13.64;82.90
67572;SHT31;54397;47.506;19.158;2023-10-19T17:44:01;13.66;82.65
67572;SHT31;54397;47.506;19.158;2023-10-19T17:47:22;13.61;83.14
67572;SHT31;54397;47.506;19.158;2023-10-19T17:50:44;13.50;83.17
67572;SHT31;54397;47.506;19.158;2023-10-19T17:54:06;13.44;83.76
67572;SHT31;54397;47.506;19.158;2023-10-19T17:57:32;13.45;83.77
67572;SHT31;54397;47.506;19.158;2023-10-19T18:00:54;13.41;84.06
67572;SHT31;54397;47.506;19.158;2023-10-19T18:04:17;13.43;84.33
67572;SHT31;54397;47.506;19.158;2023-10-19T18:07:39;13.45;84.42
67572;SHT31;54397;47.506;19.158;2023-10-19T18:11:01;13.45;84.68
67572;SHT31;54397;47.506;19.158;2023-10-19T18:14:23;13.38;85.18
67572;SHT31;54397;47.506;19.158;2023-10-19T18:17:47;13.54;88.91
67572;SHT31;54397;47.506;19.158;2023-10-19T18:21:12;13.92;88.27
67572;SHT31;54397;47.506;19.158;2023-10-19T18:24:37;14.24;86.66
67572;SHT31;54397;47.506;19.158;2023-10-19T18:28:02;14.51;85.95
67572;SHT31;54397;47.506;19.158;2023-10-19T18:31:24;14.64;84.25
67572;SHT31;54397;47.506;19.158;2023-10-19T18:34:47;14.78;84.09
67572;SHT31;54397;47.506;19.158;2023-10-19T18:38:10;14.45;79.87
67572;SHT31;54397;47.506;19.158;2023-10-19T18:41:32;14.13;80.73
67572;SHT31;54397;47.506;19.158;2023-10-19T18:44:54;13.89;81.60
67572;SHT31;54397;47.506;19.158;2023-10-19T18:48:16;13.57;82.37
67572;SHT31;54397;47.506;19.158;2023-10-19T18:51:39;13.44;83.34
67572;SHT31;54397;47.506;19.158;2023-10-19T18:55:09;13.28;83.86
67572;SHT31;54397;47.506;19.158;2023-10-19T18:58:35;13.17;83.93
67572;SHT31;54397;47.506;19.158;2023-10-19T19:01:58;13.04;84.68
67572;SHT31;54397;47.506;19.158;2023-10-19T19:05:20;12.97;84.63
67572;SHT31;54397;47.506;19.158;2023-10-19T19:08:43;12.83;83.93
67572;SHT31;54397;47.506;19.158;2023-10-19T19:12:08;12.75;84.66
67572;SHT31;54397;47.506;19.158;2023-10-19T19:15:35;12.66;85.67
67572;SHT31;54397;47.506;19.158;2023-10-19T19:18:57;12.63;85.72
67572;SHT31;54397;47.506;19.158;2023-10-19T19:22:19;12.55;85.49
67572;SHT31;54397;47.506;19.158;2023-10-19T19:25:43;12.52;85.38
67572;SHT31;54397;47.506;19.158;2023-10-19T19:29:06;12.31;85.22
67572;SHT31;54397;47.506;19.158;2023-10-19T19:32:28;12.24;85.92
67572;SHT31;54397;47.506;19.158;2023-10-19T19:35:49;12.18;85.76
67572;SHT31;54397;47.506;19.158;2023-10-19T19:39:13;12.25;86.04
67572;SHT31;54397;47.506;19.158;2023-10-19T19:42:44;12.23;85.77
67572;SHT31;54397;47.506;19.158;2023-10-19T19:46:07;12.13;85.75
67572;SHT31;54397;47.506;19.158;2023-10-19T19:49:28;12.17;85.64
67572;SHT31;54397;47.506;19.158;2023-10-19T19:52:50;12.20;85.43
67572;SHT31;54397;47.506;19.158;2023-10-19T19:56:16;12.17;85.24
67572;SHT31;54397;47.506;19.158;2023-10-19T19:59:38;12.17;85.55
67572;SHT31;54397;47.506;19.158;2023-10-19T20:03:01;11.91;85.82
67572;SHT31;54397;47.506;19.158;2023-10-19T20:06:25;12.11;89.81
67572;SHT31;54397;47.506;19.158;2023-10-19T20:09:51;12.63;90.77
67572;SHT31;54397;47.506;19.158;2023-10-19T20:13:16;13.06;88.31
67572;SHT31;54397;47.506;19.158;2023-10-19T20:16:38;13.44;87.03
67572;SHT31;54397;47.506;19.158;2023-10-19T20:20:05;13.71;86.40
67572;SHT31;54397;47.506;19.158;2023-10-19T20:23:32;13.87;85.17
67572;SHT31;54397;47.506;19.158;2023-10-19T20:26:57;14.01;83.83
67572;SHT31;54397;47.506;19.158;2023-10-19T20:30:19;13.86;80.00
67572;SHT31;54397;47.506;19.158;2023-10-19T20:33:42;13.58;80.45
67572;SHT31;54397;47.506;19.158;2023-10-19T20:37:04;13.20;81.76
67572;SHT31;54397;47.506;19.158;2023-10-19T20:40:25;13.00;82.34
67572;SHT31;54397;47.506;19.158;2023-10-19T20:43:52;12.83;83.00
67572;SHT31;54397;47.506;19.158;2023-10-19T20:47:15;12.53;83.44
67572;SHT31;54397;47.506;19.158;2023-10-19T20:50:37;12.42;84.14
67572;SHT31;54397;47.506;19.158;2023-10-19T20:53:59;12.34;84.09
67572;SHT31;54397;47.506;19.158;2023-10-19T20:57:23;12.30;84.62
67572;SHT31;54397;47.506;19.158;2023-10-19T21:00:45;12.05;84.52
67572;SHT31;54397;47.506;19.158;2023-10-19T21:04:09;12.05;85.18
67572;SHT31;54397;47.506;19.158;2023-10-19T21:07:32;11.94;85.54
67572;SHT31;54397;47.506;19.158;2023-10-19T21:10:54;12.00;85.52
67572;SHT31;54397;47.506;19.158;2023-10-19T21:14:19;12.00;85.31
67572;SHT31;54397;47.506;19.158;2023-10-19T21:17:50;12.04;85.64
67572;SHT31;54397;47.506;19.158;2023-10-19T21:21:15;12.08;85.15
67572;SHT31;54397;47.506;19.158;2023-10-19T21:24:39;12.14;85.22
67572;SHT31;54397;47.506;19.158;2023-10-19T21:28:02;12.07;85.45
67572;SHT31;54397;47.506;19.158;2023-10-19T21:31:24;12.07;85.93